Taos Pueblo, New Mexico
Current Conditions -  °F | °C
As of 12:55 PM on Thursday 30 Oct 2014 (Local Time) from KSKX Reporting Station
Clear Clear  
Wind Chill: 64°   Ceiling: Unl
Heat Index: 64°   Visibility: 10mi
Dew Point: 16°   Wind: 0mph
Humidity: 15%   Direction: NA
Pressure: 30.38"   Gusts: NA
Location:  36.4227°N, 105.509°W
Report Text: KSKX 301855Z AUTO 00000KT 10SM CLR 18/M09 A3038 RMK AO1
Loading
Personal Weather Stations






























Interactive Weather Map New forecast layout! Learn more

10-Day Weather Forecast

Advertisements
Track Severe Weather on mobile